Currently 95°F in Riverside (Presidential Park), California, USA
95°F
100°F / 71°F
8 mph W
0.00"
Friday, August 14, 2020 6:29 PM PDT

Riverside (Presidential Park), California Weather Summary
Last 36 Hours

Temperature Winds Hourly Humidity Dewpoint
Time Report Norm Report Norm Max Gusts Precip. Rpt. Norm Rpt. Norm Pressure
1Fri 06:29 PM  95.3°F  87°F  8 mph W  7 mph  10 mph  0.00"  22%  33%  49°F  53°F  29.81"
Fri 06:00 PM  96.8°F  88°F  8 mph SW  8 mph  16 mph  0.00"  21%  32%  49°F  53°F  29.81"
Fri 05:00 PM  99.5°F  90°F  9 mph SW  8 mph  14 mph  0.00"  18%  30%  47°F  53°F  29.81"
2Fri 04:04 PM  100.3°F  91°F  7 mph W  8 mph  13 mph  ----  17%  28%  45°F  53°F  29.82"
Fri 04:00 PM  100.0°F  91°F  7 mph SW  8 mph  14 mph  0.00"  17%  28%  45°F  52°F  29.82"
Fri 03:00 PM  99.0°F  92°F  8 mph SW  8 mph  15 mph  0.00"  18%  28%  47°F  53°F  29.83"
Fri 02:00 PM  98.8°F  91°F  6 mph W  6 mph  15 mph  0.00"  17%  29%  45°F  54°F  29.85"
Fri 01:00 PM  95.3°F  89°F  3 mph W  5 mph  10 mph  0.00"  19%  31%  45°F  54°F  29.88"
Fri 12:00 PM  92.5°F  86°F  4 mph W  4 mph  11 mph  0.00"  17%  37%  40°F  56°F  29.89"
Fri 11:00 AM  89.9°F  82°F  5 mph NW  3 mph  8 mph  0.00"  22%  45%  44°F  58°F  29.91"
Fri 10:00 AM  86.0°F  78°F  calm  2 mph  4 mph  0.00"  27%  53%  47°F  59°F  29.92"
Fri 09:00 AM  82.0°F  74°F  calm  2 mph  2 mph  0.00"  34%  61%  49°F  59°F  29.91"
Fri 08:00 AM  74.6°F  69°F  calm  1 mph  2 mph  0.00"  46%  70%  52°F  59°F  29.91"
Fri 07:00 AM  71.5°F  67°F  calm  1 mph  2 mph  0.00"  46%  73%  49°F  57°F  29.89"
3Fri 06:49 AM  71.0°F  66°F  1 mph NE  calm  1 mph  ----  46%  73%  48°F  57°F  29.88"
Fri 06:00 AM  71.9°F  66°F  1 mph E  1 mph  3 mph  0.00"  44%  72%  48°F  57°F  29.86"
Fri 05:00 AM  71.9°F  67°F  2 mph SE  1 mph  3 mph  0.00"  45%  70%  49°F  57°F  29.85"
Fri 04:00 AM  73.5°F  68°F  calm  1 mph  2 mph  0.00"  42%  69%  48°F  57°F  29.84"
Fri 03:00 AM  75.0°F  69°F  calm  1 mph  4 mph  0.00"  40%  67%  48°F  57°F  29.84"
Fri 02:00 AM  76.4°F  70°F  1 mph E  1 mph  2 mph  0.00"  38%  65%  48°F  57°F  29.85"
Fri 01:00 AM  78.5°F  71°F  1 mph SE  1 mph  3 mph  0.00"  35%  62%  48°F  57°F  29.86"
Fri 12:00 AM  80.3°F  73°F  1 mph E  1 mph  3 mph  0.00"  32%  59%  47°F  57°F  29.87"
Thu 11:00 PM  82.1°F  74°F  3 mph SE  2 mph  3 mph  0.00"  30%  56%  46°F  57°F  29.86"
Thu 10:00 PM  84.1°F  76°F  calm  3 mph  3 mph  0.00"  26%  52%  45°F  57°F  29.86"
Thu 09:00 PM  86.3°F  79°F  calm  3 mph  6 mph  0.00"  22%  46%  42°F  56°F  29.85"
Thu 08:00 PM  89.2°F  81°F  4 mph NW  4 mph  6 mph  0.00"  17%  41%  37°F  55°F  29.83"
Thu 07:00 PM  91.2°F  85°F  3 mph SW  6 mph  10 mph  0.00"  14%  35%  34°F  54°F  29.83"
Thu 06:00 PM  92.8°F  88°F  6 mph W  8 mph  12 mph  0.00"  15%  31%  38°F  53°F  29.83"
Thu 05:00 PM  95.6°F  90°F  8 mph SW  8 mph  15 mph  0.00"  11%  29%  32°F  52°F  29.83"
Thu 04:00 PM  94.8°F  91°F  4 mph W  8 mph  18 mph  0.00"  16%  28%  39°F  52°F  29.83"
Thu 03:00 PM  97.2°F  92°F  9 mph W  8 mph  16 mph  0.00"  10%  27%  30°F  53°F  29.84"
Thu 02:00 PM  94.9°F  91°F  3 mph SW  6 mph  11 mph  0.00"  17%  29%  41°F  53°F  29.85"
Thu 01:00 PM  92.0°F  89°F  3 mph SW  5 mph  8 mph  0.00"  17%  31%  39°F  54°F  29.87"
Thu 12:00 PM  89.0°F  86°F  2 mph W  4 mph  10 mph  0.00"  18%  37%  39°F  56°F  29.89"
Thu 11:00 AM  86.6°F  82°F  3 mph NW  3 mph  8 mph  0.00"  23%  45%  43°F  58°F  29.90"
Thu 10:00 AM  83.0°F  78°F  3 mph W  2 mph  6 mph  0.00"  29%  54%  46°F  59°F  29.90"
Thu 09:00 AM  77.4°F  74°F  2 mph NW  2 mph  6 mph  0.00"  39%  61%  50°F  59°F  29.90"
Thu 08:00 AM  73.8°F  69°F  calm  1 mph  3 mph  0.00"  43%  70%  49°F  59°F  29.90"
Thu 07:00 AM  72.5°F  66°F  calm  1 mph  2 mph  0.00"  46%  73%  50°F  57°F  29.90"

  1. Current weather data. No green row appears if the current weather data is also the high or low for the current day.
  2. High temperature for the current day.
  3. Low temperature for the current day.

The Riverside (Presidential Park), California weather pages are a service of WeatherCurrents.
Copyright ©2020  WeatherCurrents. All rights reserved. - Submit questions and comments - Privacy Policy

This page automatically refreshes every 10 minutes.